createdAt,value
2023-01-09T00:02:17.034Z,11.90
2023-01-09T00:05:05.478Z,12.10
2023-01-09T00:07:53.130Z,12.30
2023-01-09T00:10:40.890Z,12.40
2023-01-09T00:13:28.444Z,12.10
2023-01-09T00:16:16.957Z,12.10
2023-01-09T00:19:04.598Z,11.90
2023-01-09T00:21:52.449Z,11.60
2023-01-09T00:24:39.922Z,11.60
2023-01-09T00:27:31.513Z,12.20
2023-01-09T00:30:19.162Z,11.40
2023-01-09T00:33:06.718Z,12.10
2023-01-09T00:35:54.299Z,12.20
2023-01-09T00:38:42.063Z,12.30
2023-01-09T00:41:37.188Z,12.20
2023-01-09T00:44:42.778Z,12.40
2023-01-09T00:47:43.015Z,12.40
2023-01-09T00:50:33.915Z,12.10
2023-01-09T00:53:26.624Z,11.60
2023-01-09T00:56:19.613Z,12.10
2023-01-09T00:59:08.780Z,12.30
2023-01-09T01:01:56.654Z,12.40
2023-01-09T01:05:02.771Z,11.90
2023-01-09T01:07:50.460Z,11.60
2023-01-09T01:10:38.027Z,11.30
2023-01-09T01:13:25.823Z,12.20
2023-01-09T01:16:14.592Z,12.40
2023-01-09T01:19:02.101Z,12.50
2023-01-09T01:21:50.004Z,12.50
2023-01-09T01:24:37.692Z,12.50
2023-01-09T01:27:25.413Z,12.60
2023-01-09T01:30:16.278Z,12.60
2023-01-09T01:33:04.048Z,12.20
2023-01-09T01:35:51.747Z,12.20
2023-01-09T01:38:39.499Z,12.30
2023-01-09T01:41:30.228Z,12.40
2023-01-09T01:45:12.951Z,12.50
2023-01-09T01:48:11.324Z,12.50
2023-01-09T01:51:06.509Z,12.40
2023-01-09T01:54:00.614Z,11.90
2023-01-09T01:56:57.087Z,12.10
2023-01-09T01:59:53.817Z,12.30
2023-01-09T02:02:43.664Z,12.20
2023-01-09T02:05:31.602Z,12.20
2023-01-09T02:08:21.810Z,12.40
2023-01-09T02:11:10.019Z,12.40
2023-01-09T02:13:59.325Z,12.40
2023-01-09T02:17:16.753Z,12.50
2023-01-09T02:20:32.344Z,12.50
2023-01-09T02:23:53.908Z,12.50
2023-01-09T02:27:27.620Z,12.00
2023-01-09T02:30:49.558Z,12.30
2023-01-09T02:34:02.411Z,12.30
2023-01-09T02:37:26.848Z,12.40
2023-01-09T02:40:43.819Z,12.40
2023-01-09T02:43:33.008Z,12.30
2023-01-09T02:46:23.099Z,12.40
2023-01-09T02:49:12.300Z,12.50
2023-01-09T02:52:36.775Z,12.70
2023-01-09T02:55:36.455Z,12.20
2023-01-09T02:58:50.476Z,12.50
2023-01-09T03:01:52.375Z,12.50
2023-01-09T03:05:01.927Z,12.60
2023-01-09T03:08:01.918Z,12.50
2023-01-09T03:11:04.787Z,12.50
2023-01-09T03:13:57.923Z,12.10
2023-01-09T03:16:52.418Z,12.40
2023-01-09T03:19:41.826Z,12.30
2023-01-09T03:22:29.362Z,12.50
2023-01-09T03:25:18.408Z,12.40
2023-01-09T03:28:14.248Z,12.40
2023-01-09T03:31:01.898Z,12.50
2023-01-09T03:33:49.557Z,12.50
2023-01-09T03:36:37.398Z,12.40
2023-01-09T03:39:24.893Z,12.40
2023-01-09T03:42:12.639Z,12.50
2023-01-09T03:45:00.464Z,12.10
2023-01-09T03:47:48.062Z,12.30
2023-01-09T03:50:35.767Z,12.30
2023-01-09T03:53:26.262Z,12.30
2023-01-09T03:56:13.764Z,12.50
2023-01-09T03:59:01.250Z,12.40
2023-01-09T04:01:48.951Z,12.20
2023-01-09T04:04:36.916Z,12.50
2023-01-09T04:07:24.440Z,12.50
2023-01-09T04:10:12.605Z,12.60
2023-01-09T04:13:00.234Z,12.60
2023-01-09T04:15:47.746Z,12.60
2023-01-09T04:18:35.382Z,12.50
2023-01-09T04:21:22.962Z,12.70
2023-01-09T04:24:10.706Z,12.60
2023-01-09T04:26:58.395Z,12.80
2023-01-09T04:29:46.485Z,12.80
2023-01-09T04:32:34.214Z,12.70
2023-01-09T04:35:22.159Z,12.70
2023-01-09T04:38:10.124Z,12.70
2023-01-09T04:40:57.941Z,12.60
2023-01-09T04:43:45.655Z,12.60
2023-01-09T04:46:33.148Z,12.80
2023-01-09T04:49:21.399Z,12.80
2023-01-09T04:52:10.910Z,12.60
2023-01-09T04:54:58.608Z,12.70
2023-01-09T04:57:46.213Z,12.60
2023-01-09T05:00:33.780Z,12.50
2023-01-09T05:03:21.460Z,12.40
2023-01-09T05:06:09.220Z,12.70
2023-01-09T05:08:56.991Z,12.70
2023-01-09T05:11:44.492Z,12.70
2023-01-09T05:14:32.158Z,12.60
2023-01-09T05:17:19.680Z,12.20
2023-01-09T05:20:07.962Z,12.20
2023-01-09T05:22:55.500Z,12.50
2023-01-09T05:25:43.090Z,12.40
2023-01-09T05:28:32.391Z,12.50
2023-01-09T05:31:21.070Z,12.50
2023-01-09T05:34:08.840Z,12.70
2023-01-09T05:36:56.675Z,12.70
2023-01-09T05:39:44.237Z,12.30
2023-01-09T05:42:32.139Z,12.40
2023-01-09T05:45:19.758Z,12.60
2023-01-09T05:48:07.612Z,12.50
2023-01-09T05:50:55.829Z,12.70
2023-01-09T05:53:43.408Z,12.60
2023-01-09T05:56:31.319Z,12.40
2023-01-09T05:59:19.261Z,12.20
2023-01-09T06:02:07.260Z,12.50
2023-01-09T06:04:54.823Z,12.50
2023-01-09T06:07:45.349Z,12.50
2023-01-09T06:10:33.398Z,12.50
2023-01-09T06:13:20.994Z,12.40
2023-01-09T06:16:09.013Z,12.50
2023-01-09T06:18:56.739Z,12.50
2023-01-09T06:21:44.451Z,12.60
2023-01-09T06:24:31.919Z,12.50
2023-01-09T06:27:19.563Z,12.60
2023-01-09T06:30:08.166Z,12.60
2023-01-09T06:32:55.884Z,12.60
2023-01-09T06:35:43.500Z,12.60
2023-01-09T06:38:31.358Z,12.50
2023-01-09T06:41:18.913Z,12.60
2023-01-09T06:44:06.679Z,12.50
2023-01-09T06:46:54.188Z,12.60
2023-01-09T06:49:42.275Z,12.60
2023-01-09T06:52:29.984Z,12.80
2023-01-09T06:55:18.102Z,12.70
2023-01-09T06:58:05.878Z,12.80
2023-01-09T07:00:55.778Z,12.80
2023-01-09T07:03:44.226Z,12.80
2023-01-09T07:06:32.280Z,12.90
2023-01-09T07:09:19.814Z,12.90
2023-01-09T07:12:07.779Z,12.90
2023-01-09T07:14:57.551Z,12.90
2023-01-09T07:17:46.536Z,12.90
2023-01-09T07:20:34.403Z,13.00
2023-01-09T07:23:22.064Z,13.20
2023-01-09T07:26:10.292Z,13.00
2023-01-09T07:28:58.123Z,13.00
2023-01-09T07:31:45.892Z,12.90
2023-01-09T07:34:33.594Z,12.90
2023-01-09T07:37:21.297Z,12.90
2023-01-09T07:40:10.181Z,12.90
2023-01-09T07:42:57.862Z,12.90
2023-01-09T07:45:47.152Z,13.00
2023-01-09T07:48:34.941Z,12.90
2023-01-09T07:51:22.747Z,13.10
2023-01-09T07:54:13.048Z,13.00
2023-01-09T07:57:00.576Z,13.20
2023-01-09T07:59:48.447Z,13.20
2023-01-09T08:02:35.929Z,13.20
2023-01-09T08:05:23.572Z,12.90
2023-01-09T08:08:11.132Z,13.00
2023-01-09T08:10:58.748Z,13.10
2023-01-09T08:13:46.404Z,13.10
2023-01-09T08:16:34.376Z,13.00
2023-01-09T08:19:21.890Z,13.00
2023-01-09T08:22:10.300Z,13.10
2023-01-09T08:24:57.770Z,13.30
2023-01-09T08:27:46.192Z,13.30
2023-01-09T08:30:33.762Z,13.30
2023-01-09T08:33:21.568Z,13.40
2023-01-09T08:36:10.186Z,13.40
2023-01-09T08:38:57.738Z,13.30
2023-01-09T08:42:07.107Z,13.50
2023-01-09T08:45:16.418Z,13.50
2023-01-09T08:48:04.377Z,13.50
2023-01-09T08:50:54.219Z,13.50
2023-01-09T08:53:41.784Z,13.60
2023-01-09T08:56:29.230Z,13.60
2023-01-09T08:59:16.869Z,13.70
2023-01-09T09:02:04.323Z,13.90
2023-01-09T09:04:53.161Z,13.60
2023-01-09T09:07:41.607Z,13.80
2023-01-09T09:10:30.998Z,13.60
2023-01-09T09:13:18.661Z,13.90
2023-01-09T09:16:06.781Z,13.90
2023-01-09T09:18:54.398Z,14.00
2023-01-09T09:21:41.951Z,14.20
2023-01-09T09:24:29.553Z,14.20
2023-01-09T09:27:17.187Z,14.40
2023-01-09T09:30:05.460Z,14.50
2023-01-09T09:32:54.351Z,14.50
2023-01-09T09:35:41.876Z,14.60
2023-01-09T09:38:29.395Z,14.50
2023-01-09T09:41:56.505Z,14.80
2023-01-09T09:45:11.898Z,14.90
2023-01-09T09:48:31.619Z,15.10
2023-01-09T09:51:47.768Z,14.70
2023-01-09T09:54:43.818Z,14.90
2023-01-09T09:57:38.177Z,15.20
2023-01-09T10:00:26.132Z,15.20
2023-01-09T10:03:41.950Z,15.20
2023-01-09T10:06:36.929Z,15.50
2023-01-09T10:09:48.513Z,15.40
2023-01-09T10:12:53.561Z,15.70
2023-01-09T10:15:58.945Z,15.60
2023-01-09T10:19:08.060Z,15.80
2023-01-09T10:22:01.406Z,15.80
2023-01-09T10:25:01.442Z,15.40
2023-01-09T10:27:59.803Z,15.20
2023-01-09T10:31:18.776Z,15.30
2023-01-09T10:34:24.437Z,14.40
2023-01-09T10:37:21.326Z,15.20
2023-01-09T10:41:03.251Z,15.00
2023-01-09T10:44:33.541Z,14.20
2023-01-09T10:47:35.744Z,14.50
2023-01-09T10:50:31.746Z,14.90
2023-01-09T10:53:46.725Z,14.80
2023-01-09T10:56:41.185Z,15.50
2023-01-09T10:59:30.283Z,15.30
2023-01-09T11:02:38.047Z,15.50
2023-01-09T11:05:32.744Z,15.40
2023-01-09T11:08:42.009Z,15.80
2023-01-09T11:11:41.091Z,15.40
2023-01-09T11:14:31.670Z,15.80
2023-01-09T11:17:25.945Z,15.40
2023-01-09T11:20:21.252Z,15.50
2023-01-09T11:23:32.682Z,15.00
2023-01-09T11:26:28.710Z,15.60
2023-01-09T11:29:20.199Z,15.40
2023-01-09T11:32:23.683Z,15.70
2023-01-09T11:35:28.844Z,16.20
2023-01-09T11:38:18.641Z,16.40
2023-01-09T11:41:07.043Z,16.00
2023-01-09T11:43:59.317Z,16.20
2023-01-09T11:46:46.840Z,16.40
2023-01-09T11:49:34.390Z,15.70
2023-01-09T11:52:22.309Z,16.20
2023-01-09T11:55:19.634Z,16.30
2023-01-09T11:58:14.974Z,16.20
2023-01-09T12:01:23.819Z,16.40
2023-01-09T12:04:30.180Z,16.20
2023-01-09T12:07:36.245Z,16.20
2023-01-09T12:10:48.293Z,16.60
2023-01-09T12:14:11.046Z,16.60
2023-01-09T12:18:05.077Z,16.20
2023-01-09T12:21:29.078Z,16.50
2023-01-09T12:24:35.363Z,16.60
2023-01-09T12:28:07.425Z,16.10
2023-01-09T12:31:23.089Z,16.40
2023-01-09T12:34:50.802Z,16.70
2023-01-09T12:38:08.718Z,16.90
2023-01-09T12:41:17.287Z,16.80
2023-01-09T12:44:45.779Z,16.90
2023-01-09T12:47:43.826Z,16.70
2023-01-09T12:50:55.167Z,16.80
2023-01-09T12:53:55.678Z,16.90
2023-01-09T12:56:54.817Z,17.10
2023-01-09T12:59:49.228Z,17.00
2023-01-09T13:03:03.821Z,17.10
2023-01-09T13:06:01.393Z,17.50
2023-01-09T13:09:26.557Z,17.00
2023-01-09T13:12:21.677Z,16.80
2023-01-09T13:15:44.619Z,16.80
2023-01-09T13:18:42.733Z,17.00
2023-01-09T13:21:31.073Z,16.70
2023-01-09T13:25:20.914Z,16.70
2023-01-09T13:28:34.201Z,16.70
2023-01-09T13:31:48.475Z,16.70
2023-01-09T13:34:38.682Z,16.30
2023-01-09T13:37:33.365Z,16.60
2023-01-09T13:40:20.788Z,16.20
2023-01-09T13:43:13.890Z,16.30
2023-01-09T13:46:01.640Z,15.90
2023-01-09T13:48:49.136Z,16.40
2023-01-09T13:51:44.015Z,16.10
2023-01-09T13:54:53.514Z,16.10
2023-01-09T13:58:08.782Z,16.20
2023-01-09T14:01:03.187Z,16.30
2023-01-09T14:04:09.608Z,16.20
2023-01-09T14:07:26.391Z,16.20
2023-01-09T14:10:27.664Z,16.00
2023-01-09T14:13:30.195Z,16.30
2023-01-09T14:16:23.985Z,16.00
2023-01-09T14:19:36.053Z,16.10
2023-01-09T14:22:28.204Z,16.00
2023-01-09T14:25:25.409Z,16.00
2023-01-09T14:28:32.338Z,16.00
2023-01-09T14:31:32.781Z,15.70
2023-01-09T14:34:39.100Z,16.00
2023-01-09T14:37:30.126Z,15.90
2023-01-09T14:40:24.053Z,16.10
2023-01-09T14:43:25.189Z,15.80
2023-01-09T14:46:18.507Z,15.80
2023-01-09T14:49:39.835Z,15.70
2023-01-09T14:52:33.409Z,15.70
2023-01-09T14:56:06.054Z,15.70
2023-01-09T14:59:16.797Z,15.70
2023-01-09T15:02:04.499Z,15.60
2023-01-09T15:04:53.280Z,15.60
2023-01-09T15:07:50.558Z,15.60
2023-01-09T15:10:38.722Z,15.50
2023-01-09T15:13:46.202Z,15.50
2023-01-09T15:16:33.801Z,15.40
2023-01-09T15:19:21.905Z,15.50
2023-01-09T15:22:30.042Z,15.30
2023-01-09T15:25:39.333Z,15.50
2023-01-09T15:28:32.423Z,15.40
2023-01-09T15:31:24.367Z,15.10
2023-01-09T15:34:21.489Z,15.30
2023-01-09T15:37:36.760Z,15.20
2023-01-09T15:40:34.352Z,15.20
2023-01-09T15:43:22.781Z,15.00
2023-01-09T15:46:15.600Z,15.00
2023-01-09T15:49:03.396Z,15.00
2023-01-09T15:51:51.906Z,14.90
2023-01-09T15:54:42.774Z,14.90
2023-01-09T15:57:34.177Z,14.90
2023-01-09T16:00:46.374Z,14.90
2023-01-09T16:03:38.500Z,14.70
2023-01-09T16:06:31.871Z,14.70
2023-01-09T16:09:30.171Z,14.70
2023-01-09T16:12:26.709Z,14.60
2023-01-09T16:15:19.816Z,14.60
2023-01-09T16:18:29.077Z,14.60
2023-01-09T16:21:57.814Z,14.60
2023-01-09T16:24:45.329Z,14.60
2023-01-09T16:27:34.142Z,14.60
2023-01-09T16:30:27.538Z,14.60
2023-01-09T16:33:25.284Z,14.60
2023-01-09T16:36:13.912Z,14.50
2023-01-09T16:39:03.243Z,14.50
2023-01-09T16:42:09.323Z,14.50
2023-01-09T16:44:56.822Z,14.50
2023-01-09T16:47:45.931Z,14.50
2023-01-09T16:50:33.471Z,14.50
2023-01-09T16:53:25.682Z,14.50
2023-01-09T16:56:29.872Z,14.50
2023-01-09T16:59:25.225Z,14.50
2023-01-09T17:02:20.296Z,14.50
2023-01-09T17:05:08.306Z,14.50
2023-01-09T17:07:56.380Z,14.60
2023-01-09T17:10:43.839Z,14.60
2023-01-09T17:13:31.343Z,14.60
2023-01-09T17:16:19.682Z,14.60
2023-01-09T17:19:07.265Z,14.60
2023-01-09T17:21:54.779Z,14.60
2023-01-09T17:25:00.841Z,14.60
2023-01-09T17:28:07.075Z,14.50
2023-01-09T17:30:55.572Z,14.50
2023-01-09T17:33:43.169Z,14.50
2023-01-09T17:36:34.754Z,14.50
2023-01-09T17:39:23.717Z,14.40
2023-01-09T17:42:11.449Z,14.50
2023-01-09T17:44:59.783Z,14.40
2023-01-09T17:47:47.244Z,14.30
2023-01-09T17:50:36.473Z,14.30
2023-01-09T17:53:25.450Z,14.30
2023-01-09T17:56:21.232Z,14.30
2023-01-09T17:59:12.604Z,14.20
2023-01-09T18:02:00.197Z,14.10
2023-01-09T18:04:47.732Z,14.20
2023-01-09T18:07:35.301Z,14.10
2023-01-09T18:10:29.350Z,14.10
2023-01-09T18:13:17.406Z,14.10
2023-01-09T18:16:13.745Z,14.10
2023-01-09T18:19:02.208Z,14.00
2023-01-09T18:21:49.663Z,14.00
2023-01-09T18:24:37.342Z,14.00
2023-01-09T18:27:25.151Z,14.10
2023-01-09T18:30:13.061Z,14.10
2023-01-09T18:33:00.580Z,13.80
2023-01-09T18:35:48.189Z,13.50
2023-01-09T18:38:36.710Z,13.30
2023-01-09T18:41:25.220Z,13.10
2023-01-09T18:44:12.670Z,14.00
2023-01-09T18:47:01.944Z,14.10
2023-01-09T18:49:49.500Z,14.30
2023-01-09T18:52:37.115Z,14.20
2023-01-09T18:55:24.705Z,14.30
2023-01-09T18:58:12.125Z,14.40
2023-01-09T19:01:01.408Z,14.40
2023-01-09T19:03:49.090Z,14.40
2023-01-09T19:06:37.640Z,14.40
2023-01-09T19:09:25.293Z,14.50
2023-01-09T19:12:13.139Z,14.30
2023-01-09T19:15:00.687Z,14.30
2023-01-09T19:17:50.404Z,14.30
2023-01-09T19:20:40.980Z,14.50
2023-01-09T19:23:29.420Z,14.40
2023-01-09T19:26:25.030Z,14.40
2023-01-09T19:29:12.476Z,14.40
2023-01-09T19:32:00.104Z,14.40
2023-01-09T19:34:47.600Z,14.30
2023-01-09T19:37:35.482Z,14.40
2023-01-09T19:40:23.100Z,14.30
2023-01-09T19:43:10.572Z,14.20
2023-01-09T19:45:58.128Z,14.10
2023-01-09T19:48:46.272Z,14.10
2023-01-09T19:51:34.203Z,14.00
2023-01-09T19:54:21.806Z,14.00
2023-01-09T19:57:09.419Z,14.00
2023-01-09T19:59:57.828Z,14.00
2023-01-09T20:02:45.355Z,14.00
2023-01-09T20:05:33.652Z,14.00
2023-01-09T20:08:21.196Z,14.00
2023-01-09T20:11:09.455Z,14.10
2023-01-09T20:13:57.517Z,14.10
2023-01-09T20:16:48.732Z,14.10
2023-01-09T20:19:36.878Z,14.10
2023-01-09T20:22:26.342Z,13.80
2023-01-09T20:25:13.906Z,14.00
2023-01-09T20:28:01.416Z,13.90
2023-01-09T20:30:51.857Z,14.10
2023-01-09T20:33:40.152Z,14.10
2023-01-09T20:36:32.109Z,13.70
2023-01-09T20:39:19.663Z,13.80
2023-01-09T20:42:07.195Z,13.70
2023-01-09T20:44:55.750Z,13.80
2023-01-09T20:47:43.247Z,13.80
2023-01-09T20:50:31.500Z,13.70
2023-01-09T20:53:18.980Z,13.80
2023-01-09T20:56:09.619Z,13.90
2023-01-09T20:59:00.203Z,14.00
2023-01-09T21:01:47.846Z,13.80
2023-01-09T21:04:35.418Z,13.80
2023-01-09T21:07:25.194Z,13.90
2023-01-09T21:10:12.864Z,13.90
2023-01-09T21:13:00.318Z,13.90
2023-01-09T21:15:47.769Z,14.00
2023-01-09T21:18:35.599Z,14.00
2023-01-09T21:21:27.683Z,14.00
2023-01-09T21:24:15.485Z,14.10
2023-01-09T21:27:02.966Z,14.10
2023-01-09T21:29:50.420Z,14.20
2023-01-09T21:32:38.413Z,14.30
2023-01-09T21:35:26.106Z,14.60
2023-01-09T21:38:13.679Z,14.60
2023-01-09T21:41:21.648Z,14.40
2023-01-09T21:44:31.434Z,14.30
2023-01-09T21:47:18.929Z,14.50
2023-01-09T21:50:07.883Z,14.40
2023-01-09T21:52:55.380Z,14.50
2023-01-09T21:55:42.822Z,14.40
2023-01-09T21:58:30.335Z,14.50
2023-01-09T22:01:17.973Z,14.40
2023-01-09T22:04:06.018Z,14.50
2023-01-09T22:06:53.960Z,14.60
2023-01-09T22:09:43.069Z,14.60
2023-01-09T22:12:30.679Z,14.60
2023-01-09T22:15:18.116Z,14.40
2023-01-09T22:18:05.722Z,14.40
2023-01-09T22:20:53.455Z,14.70
2023-01-09T22:23:41.055Z,14.60
2023-01-09T22:26:30.158Z,14.40
2023-01-09T22:29:17.735Z,14.30
2023-01-09T22:32:05.609Z,14.30
2023-01-09T22:34:53.192Z,14.00
2023-01-09T22:37:40.673Z,14.00
2023-01-09T22:40:28.274Z,14.40
2023-01-09T22:43:17.015Z,14.10
2023-01-09T22:46:11.009Z,14.40
2023-01-09T22:48:58.929Z,14.40
2023-01-09T22:51:46.484Z,14.40
2023-01-09T22:54:33.939Z,14.20
2023-01-09T22:57:21.451Z,14.20
2023-01-09T23:00:10.380Z,14.00
2023-01-09T23:02:57.848Z,14.00
2023-01-09T23:05:45.413Z,14.10
2023-01-09T23:08:34.457Z,13.80
2023-01-09T23:11:48.297Z,13.70
2023-01-09T23:14:39.009Z,13.60
2023-01-09T23:17:26.640Z,13.50
2023-01-09T23:20:14.238Z,13.70
2023-01-09T23:23:01.869Z,13.50
2023-01-09T23:25:56.548Z,13.70
2023-01-09T23:28:44.063Z,13.90
2023-01-09T23:31:32.864Z,13.90
2023-01-09T23:34:24.388Z,13.90
2023-01-09T23:37:11.884Z,13.80
2023-01-09T23:39:59.336Z,13.20
2023-01-09T23:43:05.755Z,14.00
2023-01-09T23:45:53.367Z,14.10
2023-01-09T23:48:40.869Z,14.00
2023-01-09T23:51:28.334Z,13.70
2023-01-09T23:54:17.306Z,13.70
2023-01-09T23:57:05.249Z,14.00
2023-01-09T23:59:52.720Z,14.00
